sensor_id;sensor_type;location;lat;lon;timestamp;pressure;altitude;pressure_sealevel;temperature;humidity
64827;BME280;51265;53.972;12.286;2023-10-09T00:00:37;101419.28;;;6.95;97.00
64827;BME280;51265;53.972;12.286;2023-10-09T00:03:06;101432.28;;;6.83;97.67
64827;BME280;51265;53.972;12.286;2023-10-09T00:05:33;101430.47;;;6.72;98.38
64827;BME280;51265;53.972;12.286;2023-10-09T00:08:13;101430.16;;;6.68;99.59
64827;BME280;51265;53.972;12.286;2023-10-09T00:10:45;101417.22;;;6.64;100.00
64827;BME280;51265;53.972;12.286;2023-10-09T00:13:24;101432.16;;;6.56;100.00
64827;BME280;51265;53.972;12.286;2023-10-09T00:15:57;101429.22;;;6.41;100.00
64827;BME280;51265;53.972;12.286;2023-10-09T00:18:27;101427.88;;;6.43;100.00
64827;BME280;51265;53.972;12.286;2023-10-09T00:21:00;101421.91;;;6.46;100.00
64827;BME280;51265;53.972;12.286;2023-10-09T00:23:37;101409.88;;;6.47;100.00
64827;BME280;51265;53.972;12.286;2023-10-09T00:26:03;101409.88;;;6.47;100.00
64827;BME280;51265;53.972;12.286;2023-10-09T00:28:49;101400.53;;;6.43;100.00
64827;BME280;51265;53.972;12.286;2023-10-09T00:31:18;101396.13;;;6.42;100.00
64827;BME280;51265;53.972;12.286;2023-10-09T00:33:56;101386.84;;;6.43;100.00
64827;BME280;51265;53.972;12.286;2023-10-09T00:36:22;101385.69;;;6.39;100.00
64827;BME280;51265;53.972;12.286;2023-10-09T00:38:54;101380.75;;;6.36;100.00
64827;BME280;51265;53.972;12.286;2023-10-09T00:41:20;101379.66;;;6.37;100.00
64827;BME280;51265;53.972;12.286;2023-10-09T00:43:51;101372.00;;;6.39;100.00
64827;BME280;51265;53.972;12.286;2023-10-09T00:46:20;101377.47;;;6.39;100.00
64827;BME280;51265;53.972;12.286;2023-10-09T00:48:48;101375.59;;;6.40;100.00
64827;BME280;51265;53.972;12.286;2023-10-09T00:51:18;101366.53;;;6.39;100.00
64827;BME280;51265;53.972;12.286;2023-10-09T00:53:48;101365.72;;;6.39;100.00
64827;BME280;51265;53.972;12.286;2023-10-09T00:56:18;101368.22;;;6.40;100.00
64827;BME280;51265;53.972;12.286;2023-10-09T00:58:46;101364.88;;;6.38;100.00
64827;BME280;51265;53.972;12.286;2023-10-09T01:01:14;101366.03;;;6.42;100.00
64827;BME280;51265;53.972;12.286;2023-10-09T01:03:43;101370.75;;;6.47;100.00
64827;BME280;51265;53.972;12.286;2023-10-09T01:06:11;101363.34;;;6.47;100.00
64827;BME280;51265;53.972;12.286;2023-10-09T01:08:41;101366.19;;;6.53;100.00
64827;BME280;51265;53.972;12.286;2023-10-09T01:11:11;101365.59;;;6.51;100.00
64827;BME280;51265;53.972;12.286;2023-10-09T01:13:46;101348.22;;;6.62;100.00
64827;BME280;51265;53.972;12.286;2023-10-09T01:16:12;101335.09;;;6.64;100.00
64827;BME280;51265;53.972;12.286;2023-10-09T01:18:46;101341.22;;;6.71;100.00
64827;BME280;51265;53.972;12.286;2023-10-09T01:21:19;101330.78;;;6.68;100.00
64827;BME280;51265;53.972;12.286;2023-10-09T01:23:57;101321.41;;;6.64;100.00
64827;BME280;51265;53.972;12.286;2023-10-09T01:26:30;101311.25;;;6.59;100.00
64827;BME280;51265;53.972;12.286;2023-10-09T01:29:08;101312.59;;;6.57;100.00
64827;BME280;51265;53.972;12.286;2023-10-09T01:31:41;101308.56;;;6.64;100.00
64827;BME280;51265;53.972;12.286;2023-10-09T01:34:31;101298.06;;;6.78;100.00
64827;BME280;51265;53.972;12.286;2023-10-09T01:39:49;101304.53;;;6.72;100.00
64827;BME280;51265;53.972;12.286;2023-10-09T01:42:20;101298.88;;;6.79;100.00
64827;BME280;51265;53.972;12.286;2023-10-09T01:45:14;101282.22;;;6.85;100.00
64827;BME280;51265;53.972;12.286;2023-10-09T01:47:46;101286.84;;;6.80;100.00
64827;BME280;51265;53.972;12.286;2023-10-09T01:50:17;101290.09;;;6.77;100.00
64827;BME280;51265;53.972;12.286;2023-10-09T01:53:13;101270.06;;;6.71;100.00
64827;BME280;51265;53.972;12.286;2023-10-09T01:55:44;101278.84;;;6.73;100.00
64827;BME280;51265;53.972;12.286;2023-10-09T01:58:11;101279.94;;;6.77;100.00
64827;BME280;51265;53.972;12.286;2023-10-09T02:00:47;101269.84;;;6.78;100.00
64827;BME280;51265;53.972;12.286;2023-10-09T02:03:23;101267.34;;;6.76;100.00
64827;BME280;51265;53.972;12.286;2023-10-09T02:05:50;101269.53;;;6.74;100.00
64827;BME280;51265;53.972;12.286;2023-10-09T02:08:17;101275.47;;;6.66;100.00
64827;BME280;51265;53.972;12.286;2023-10-09T02:10:48;101293.50;;;6.62;100.00
64827;BME280;51265;53.972;12.286;2023-10-09T02:13:15;101275.41;;;6.61;100.00
64827;BME280;51265;53.972;12.286;2023-10-09T02:15:43;101265.03;;;6.63;100.00
64827;BME280;51265;53.972;12.286;2023-10-09T02:18:12;101274.88;;;6.64;100.00
64827;BME280;51265;53.972;12.286;2023-10-09T02:21:04;101269.41;;;6.64;100.00
64827;BME280;51265;53.972;12.286;2023-10-09T02:23:33;101261.78;;;6.66;100.00
64827;BME280;51265;53.972;12.286;2023-10-09T02:26:13;101263.44;;;6.67;100.00
64827;BME280;51265;53.972;12.286;2023-10-09T02:28:53;101254.22;;;6.73;100.00
64827;BME280;51265;53.972;12.286;2023-10-09T02:31:30;101259.16;;;6.76;100.00
64827;BME280;51265;53.972;12.286;2023-10-09T02:34:07;101257.44;;;6.70;100.00
64827;BME280;51265;53.972;12.286;2023-10-09T02:36:37;101256.81;;;6.63;100.00
64827;BME280;51265;53.972;12.286;2023-10-09T02:39:10;101254.66;;;6.65;100.00
64827;BME280;51265;53.972;12.286;2023-10-09T02:42:05;101258.47;;;6.64;100.00
64827;BME280;51265;53.972;12.286;2023-10-09T02:44:50;101262.56;;;6.61;100.00
64827;BME280;51265;53.972;12.286;2023-10-09T02:47:18;101261.16;;;6.59;100.00
64827;BME280;51265;53.972;12.286;2023-10-09T02:49:51;101255.72;;;6.64;100.00
64827;BME280;51265;53.972;12.286;2023-10-09T02:52:19;101247.50;;;6.64;100.00
64827;BME280;51265;53.972;12.286;2023-10-09T02:54:46;101244.53;;;6.65;100.00
64827;BME280;51265;53.972;12.286;2023-10-09T02:57:19;101236.66;;;6.69;100.00
64827;BME280;51265;53.972;12.286;2023-10-09T02:59:49;101223.03;;;6.79;100.00
64827;BME280;51265;53.972;12.286;2023-10-09T03:02:18;101213.31;;;6.93;100.00
64827;BME280;51265;53.972;12.286;2023-10-09T03:04:45;101211.78;;;7.03;100.00
64827;BME280;51265;53.972;12.286;2023-10-09T03:07:11;101202.66;;;6.97;100.00
64827;BME280;51265;53.972;12.286;2023-10-09T03:09:39;101187.59;;;6.94;100.00
64827;BME280;51265;53.972;12.286;2023-10-09T03:12:07;101194.72;;;6.95;100.00
64827;BME280;51265;53.972;12.286;2023-10-09T03:14:37;101196.38;;;6.96;100.00
64827;BME280;51265;53.972;12.286;2023-10-09T03:17:07;101192.53;;;6.97;100.00
64827;BME280;51265;53.972;12.286;2023-10-09T03:19:40;101189.25;;;6.95;100.00
64827;BME280;51265;53.972;12.286;2023-10-09T03:22:07;101187.06;;;6.97;100.00
64827;BME280;51265;53.972;12.286;2023-10-09T03:24:38;101176.66;;;6.94;100.00
64827;BME280;51265;53.972;12.286;2023-10-09T03:27:07;101174.97;;;6.93;100.00
64827;BME280;51265;53.972;12.286;2023-10-09T03:29:33;101172.53;;;6.97;100.00
64827;BME280;51265;53.972;12.286;2023-10-09T03:32:00;101172.56;;;7.02;100.00
64827;BME280;51265;53.972;12.286;2023-10-09T03:34:26;101167.41;;;7.06;100.00
64827;BME280;51265;53.972;12.286;2023-10-09T03:36:52;101164.72;;;7.11;100.00
64827;BME280;51265;53.972;12.286;2023-10-09T03:39:30;101170.72;;;7.08;100.00
64827;BME280;51265;53.972;12.286;2023-10-09T03:42:07;101171.25;;;7.05;100.00
64827;BME280;51265;53.972;12.286;2023-10-09T03:44:46;101184.16;;;7.09;100.00
64827;BME280;51265;53.972;12.286;2023-10-09T03:47:19;101174.31;;;7.13;100.00
64827;BME280;51265;53.972;12.286;2023-10-09T03:49:49;101175.69;;;7.11;100.00
64827;BME280;51265;53.972;12.286;2023-10-09T03:52:17;101173.69;;;7.06;100.00
64827;BME280;51265;53.972;12.286;2023-10-09T03:54:45;101174.00;;;7.10;100.00
64827;BME280;51265;53.972;12.286;2023-10-09T03:57:12;101174.09;;;7.20;100.00
64827;BME280;51265;53.972;12.286;2023-10-09T03:59:45;101165.09;;;7.24;100.00
64827;BME280;51265;53.972;12.286;2023-10-09T04:02:15;101170.28;;;7.21;100.00
64827;BME280;51265;53.972;12.286;2023-10-09T04:04:45;101171.91;;;7.22;100.00
64827;BME280;51265;53.972;12.286;2023-10-09T04:07:13;101159.63;;;7.24;100.00
64827;BME280;51265;53.972;12.286;2023-10-09T04:09:42;101159.31;;;7.21;100.00
64827;BME280;51265;53.972;12.286;2023-10-09T04:12:13;101137.91;;;7.18;100.00
64827;BME280;51265;53.972;12.286;2023-10-09T04:14:46;101139.03;;;7.22;100.00
64827;BME280;51265;53.972;12.286;2023-10-09T04:17:23;101134.06;;;7.19;100.00
64827;BME280;51265;53.972;12.286;2023-10-09T04:19:55;101140.94;;;7.16;100.00
64827;BME280;51265;53.972;12.286;2023-10-09T04:22:41;101134.69;;;7.26;100.00
64827;BME280;51265;53.972;12.286;2023-10-09T04:25:20;101134.69;;;7.26;100.00
64827;BME280;51265;53.972;12.286;2023-10-09T04:27:54;101122.06;;;7.25;100.00
64827;BME280;51265;53.972;12.286;2023-10-09T04:30:36;101114.13;;;7.23;100.00
64827;BME280;51265;53.972;12.286;2023-10-09T04:33:06;101118.75;;;7.23;100.00
64827;BME280;51265;53.972;12.286;2023-10-09T04:35:51;101125.91;;;7.24;100.00
64827;BME280;51265;53.972;12.286;2023-10-09T04:38:37;101112.75;;;7.26;100.00
64827;BME280;51265;53.972;12.286;2023-10-09T04:41:05;101113.63;;;7.32;100.00
64827;BME280;51265;53.972;12.286;2023-10-09T04:43:31;101120.19;;;7.31;100.00
64827;BME280;51265;53.972;12.286;2023-10-09T04:45:59;101127.84;;;7.29;100.00
64827;BME280;51265;53.972;12.286;2023-10-09T04:48:38;101122.91;;;7.31;100.00
64827;BME280;51265;53.972;12.286;2023-10-09T04:51:05;101120.47;;;7.29;100.00
64827;BME280;51265;53.972;12.286;2023-10-09T04:53:48;101116.59;;;7.25;100.00
64827;BME280;51265;53.972;12.286;2023-10-09T04:56:26;101125.91;;;7.24;100.00
64827;BME280;51265;53.972;12.286;2023-10-09T04:58:57;101100.69;;;7.22;100.00
64827;BME280;51265;53.972;12.286;2023-10-09T05:01:30;101100.13;;;7.15;100.00
64827;BME280;51265;53.972;12.286;2023-10-09T05:04:09;101094.09;;;7.18;100.00
64827;BME280;51265;53.972;12.286;2023-10-09T05:06:52;101091.31;;;7.13;100.00
64827;BME280;51265;53.972;12.286;2023-10-09T05:09:22;101087.47;;;7.14;100.00
64827;BME280;51265;53.972;12.286;2023-10-09T05:11:49;101092.97;;;7.14;100.00
64827;BME280;51265;53.972;12.286;2023-10-09T05:14:22;101089.16;;;7.15;100.00
64827;BME280;51265;53.972;12.286;2023-10-09T05:17:05;101104.78;;;7.19;100.00
64827;BME280;51265;53.972;12.286;2023-10-09T05:19:35;101090.81;;;7.21;100.00
64827;BME280;51265;53.972;12.286;2023-10-09T05:22:11;101091.94;;;7.25;100.00
64827;BME280;51265;53.972;12.286;2023-10-09T05:24:57;101084.31;;;7.32;100.00
64827;BME280;51265;53.972;12.286;2023-10-09T05:27:23;101077.16;;;7.31;100.00
64827;BME280;51265;53.972;12.286;2023-10-09T05:30:08;101079.97;;;7.36;100.00
64827;BME280;51265;53.972;12.286;2023-10-09T05:32:54;101070.63;;;7.37;100.00
64827;BME280;51265;53.972;12.286;2023-10-09T05:35:50;101078.84;;;7.37;100.00
64827;BME280;51265;53.972;12.286;2023-10-09T05:38:32;101090.91;;;7.36;100.00
64827;BME280;51265;53.972;12.286;2023-10-09T05:41:02;101081.59;;;7.37;100.00
64827;BME280;51265;53.972;12.286;2023-10-09T05:43:48;101080.25;;;7.40;100.00
64827;BME280;51265;53.972;12.286;2023-10-09T05:46:33;101086.81;;;7.44;100.00
64827;BME280;51265;53.972;12.286;2023-10-09T05:49:03;101094.22;;;7.43;100.00
64827;BME280;51265;53.972;12.286;2023-10-09T05:51:45;101088.78;;;7.48;100.00
64827;BME280;51265;53.972;12.286;2023-10-09T05:54:19;101090.72;;;7.53;100.00
64827;BME280;51265;53.972;12.286;2023-10-09T05:57:04;101088.50;;;7.50;100.00
64827;BME280;51265;53.972;12.286;2023-10-09T06:00:02;101084.38;;;7.47;100.00
64827;BME280;51265;53.972;12.286;2023-10-09T06:02:47;101079.97;;;7.41;100.00
64827;BME280;51265;53.972;12.286;2023-10-09T06:05:32;101075.59;;;7.40;100.00
64827;BME280;51265;53.972;12.286;2023-10-09T06:08:07;101074.47;;;7.36;100.00
64827;BME280;51265;53.972;12.286;2023-10-09T06:10:34;101064.84;;;7.34;100.00
64827;BME280;51265;53.972;12.286;2023-10-09T06:13:08;101069.81;;;7.37;100.00
64827;BME280;51265;53.972;12.286;2023-10-09T06:15:54;101062.72;;;7.41;100.00
64827;BME280;51265;53.972;12.286;2023-10-09T06:18:40;101050.97;;;7.51;100.00
64827;BME280;51265;53.972;12.286;2023-10-09T06:21:21;101043.84;;;7.55;100.00
64827;BME280;51265;53.972;12.286;2023-10-09T06:24:19;101044.97;;;7.59;100.00
64827;BME280;51265;53.972;12.286;2023-10-09T06:26:49;101045.53;;;7.66;100.00
64827;BME280;51265;53.972;12.286;2023-10-09T06:29:25;101040.06;;;7.66;100.00
64827;BME280;51265;53.972;12.286;2023-10-09T06:32:11;101036.50;;;7.65;100.00
64827;BME280;51265;53.972;12.286;2023-10-09T06:34:44;101050.47;;;7.69;100.00
64827;BME280;51265;53.972;12.286;2023-10-09T06:37:12;101060.91;;;7.72;100.00
64827;BME280;51265;53.972;12.286;2023-10-09T06:39:51;101055.19;;;7.79;100.00
64827;BME280;51265;53.972;12.286;2023-10-09T06:42:28;101046.66;;;7.80;100.00
64827;BME280;51265;53.972;12.286;2023-10-09T06:45:03;101066.16;;;7.89;100.00
64827;BME280;51265;53.972;12.286;2023-10-09T06:47:35;101063.19;;;7.95;100.00
64827;BME280;51265;53.972;12.286;2023-10-09T06:50:09;101069.25;;;8.08;100.00
64827;BME280;51265;53.972;12.286;2023-10-09T06:52:53;101059.38;;;8.22;100.00
64827;BME280;51265;53.972;12.286;2023-10-09T06:55:45;101062.16;;;8.32;100.00
64827;BME280;51265;53.972;12.286;2023-10-09T06:58:18;101063.25;;;8.36;100.00
64827;BME280;51265;53.972;12.286;2023-10-09T07:00:55;101065.47;;;8.50;100.00
64827;BME280;51265;53.972;12.286;2023-10-09T07:03:27;101072.59;;;8.61;100.00
64827;BME280;51265;53.972;12.286;2023-10-09T07:06:06;101075.06;;;8.72;100.00
64827;BME280;51265;53.972;12.286;2023-10-09T07:08:52;101078.91;;;8.92;100.00
64827;BME280;51265;53.972;12.286;2023-10-09T07:11:41;101084.38;;;9.02;100.00
64827;BME280;51265;53.972;12.286;2023-10-09T07:14:21;101077.50;;;9.10;100.00
64827;BME280;51265;53.972;12.286;2023-10-09T07:17:03;101086.28;;;9.17;100.00
64827;BME280;51265;53.972;12.286;2023-10-09T07:19:43;101071.44;;;9.28;100.00
64827;BME280;51265;53.972;12.286;2023-10-09T07:22:10;101071.66;;;9.42;100.00
64827;BME280;51265;53.972;12.286;2023-10-09T07:24:49;101064.19;;;9.47;100.00
64827;BME280;51265;53.972;12.286;2023-10-09T07:27:19;101059.19;;;9.60;100.00
64827;BME280;51265;53.972;12.286;2023-10-09T07:30:07;101054.19;;;9.72;100.00
64827;BME280;51265;53.972;12.286;2023-10-09T07:32:56;101045.91;;;9.77;100.00
64827;BME280;51265;53.972;12.286;2023-10-09T07:35:32;101048.63;;;9.87;100.00
64827;BME280;51265;53.972;12.286;2023-10-09T07:38:16;101049.19;;;9.84;100.00
64827;BME280;51265;53.972;12.286;2023-10-09T07:40:47;101051.88;;;9.94;100.00
64827;BME280;51265;53.972;12.286;2023-10-09T07:43:46;101043.59;;;10.00;100.00
64827;BME280;51265;53.972;12.286;2023-10-09T07:46:19;101047.97;;;10.06;100.00
64827;BME280;51265;53.972;12.286;2023-10-09T07:49:18;101047.41;;;10.09;100.00
64827;BME280;51265;53.972;12.286;2023-10-09T07:51:51;101037.47;;;10.13;100.00
64827;BME280;51265;53.972;12.286;2023-10-09T07:54:19;101048.69;;;10.27;100.00
64827;BME280;51265;53.972;12.286;2023-10-09T07:57:05;101054.91;;;10.42;100.00
64827;BME280;51265;53.972;12.286;2023-10-09T07:59:35;101058.16;;;10.50;100.00
64827;BME280;51265;53.972;12.286;2023-10-09T08:02:21;101059.69;;;10.61;100.00
64827;BME280;51265;53.972;12.286;2023-10-09T08:05:01;101051.31;;;10.76;100.00
64827;BME280;51265;53.972;12.286;2023-10-09T08:07:47;101061.66;;;10.89;100.00
64827;BME280;51265;53.972;12.286;2023-10-09T08:10:31;101055.00;;;10.95;100.00
64827;BME280;51265;53.972;12.286;2023-10-09T08:12:57;101049.06;;;11.07;100.00
64827;BME280;51265;53.972;12.286;2023-10-09T08:15:45;101041.44;;;11.23;100.00
64827;BME280;51265;53.972;12.286;2023-10-09T08:18:18;101033.06;;;11.33;100.00
64827;BME280;51265;53.972;12.286;2023-10-09T08:20:57;101030.75;;;11.40;100.00
64827;BME280;51265;53.972;12.286;2023-10-09T08:23:24;101020.84;;;11.39;100.00
64827;BME280;51265;53.972;12.286;2023-10-09T08:26:00;101024.34;;;11.45;100.00
64827;BME280;51265;53.972;12.286;2023-10-09T08:28:42;101009.91;;;11.53;100.00
64827;BME280;51265;53.972;12.286;2023-10-09T08:31:13;101011.34;;;11.51;100.00
64827;BME280;51265;53.972;12.286;2023-10-09T08:33:46;101012.75;;;11.48;100.00
64827;BME280;51265;53.972;12.286;2023-10-09T08:36:26;101019.06;;;11.48;100.00
64827;BME280;51265;53.972;12.286;2023-10-09T08:39:03;101015.91;;;11.60;100.00
64827;BME280;51265;53.972;12.286;2023-10-09T08:41:49;101020.84;;;11.82;100.00
64827;BME280;51265;53.972;12.286;2023-10-09T08:44:19;101014.25;;;11.83;100.00
64827;BME280;51265;53.972;12.286;2023-10-09T08:46:49;101011.41;;;11.88;100.00
64827;BME280;51265;53.972;12.286;2023-10-09T08:49:19;101015.88;;;11.84;100.00
64827;BME280;51265;53.972;12.286;2023-10-09T08:51:47;101016.69;;;11.85;100.00
64827;BME280;51265;53.972;12.286;2023-10-09T08:54:14;101025.41;;;12.11;100.00
64827;BME280;51265;53.972;12.286;2023-10-09T08:56:41;101015.28;;;12.25;100.00
64827;BME280;51265;53.972;12.286;2023-10-09T08:59:18;101013.72;;;12.52;100.00
64827;BME280;51265;53.972;12.286;2023-10-09T09:01:48;101009.66;;;12.63;100.00
64827;BME280;51265;53.972;12.286;2023-10-09T09:07:06;100998.25;;;12.83;100.00
64827;BME280;51265;53.972;12.286;2023-10-09T09:09:33;100988.50;;;12.72;100.00
64827;BME280;51265;53.972;12.286;2023-10-09T09:12:00;100978.97;;;12.64;100.00
64827;BME280;51265;53.972;12.286;2023-10-09T09:14:37;100984.91;;;12.71;100.00
64827;BME280;51265;53.972;12.286;2023-10-09T09:17:05;100985.75;;;12.72;100.00
64827;BME280;51265;53.972;12.286;2023-10-09T09:19:37;100982.50;;;12.98;100.00
64827;BME280;51265;53.972;12.286;2023-10-09T09:22:04;100971.47;;;13.25;100.00
64827;BME280;51265;53.972;12.286;2023-10-09T09:24:41;100962.84;;;13.27;100.00
64827;BME280;51265;53.972;12.286;2023-10-09T09:27:12;100963.06;;;13.30;100.00
64827;BME280;51265;53.972;12.286;2023-10-09T09:29:40;100960.19;;;13.35;100.00
64827;BME280;51265;53.972;12.286;2023-10-09T09:32:11;100951.56;;;13.51;100.00
64827;BME280;51265;53.972;12.286;2023-10-09T09:34:48;100959.94;;;13.45;100.00
64827;BME280;51265;53.972;12.286;2023-10-09T09:37:21;100947.88;;;13.41;100.00
64827;BME280;51265;53.972;12.286;2023-10-09T09:39:50;100943.78;;;13.39;100.00
64827;BME280;51265;53.972;12.286;2023-10-09T09:42:18;100946.72;;;13.56;100.00
64827;BME280;51265;53.972;12.286;2023-10-09T09:44:51;100948.81;;;13.73;100.00
64827;BME280;51265;53.972;12.286;2023-10-09T09:47:18;100944.69;;;13.84;100.00
64827;BME280;51265;53.972;12.286;2023-10-09T09:49:53;100942.63;;;13.90;100.00
64827;BME280;51265;53.972;12.286;2023-10-09T09:52:28;100934.00;;;13.91;100.00
64827;BME280;51265;53.972;12.286;2023-10-09T09:54:55;100929.47;;;13.95;100.00
64827;BME280;51265;53.972;12.286;2023-10-09T09:57:24;100912.09;;;13.81;100.00
64827;BME280;51265;53.972;12.286;2023-10-09T09:59:53;100886.31;;;13.72;100.00
64827;BME280;51265;53.972;12.286;2023-10-09T10:02:35;100902.25;;;13.75;100.00
64827;BME280;51265;53.972;12.286;2023-10-09T10:05:06;100907.31;;;14.18;100.00
64827;BME280;51265;53.972;12.286;2023-10-09T10:07:38;100908.91;;;14.41;100.00
64827;BME280;51265;53.972;12.286;2023-10-09T10:10:34;100896.31;;;14.58;100.00
64827;BME280;51265;53.972;12.286;2023-10-09T10:13:00;100876.13;;;14.66;100.00
64827;BME280;51265;53.972;12.286;2023-10-09T10:18:24;100857.91;;;14.82;99.25
64827;BME280;51265;53.972;12.286;2023-10-09T10:23:43;100850.44;;;14.91;97.61
64827;BME280;51265;53.972;12.286;2023-10-09T10:26:17;100856.94;;;14.78;96.26
64827;BME280;51265;53.972;12.286;2023-10-09T10:29:13;100842.66;;;15.11;94.06
64827;BME280;51265;53.972;12.286;2023-10-09T10:31:57;100825.03;;;15.41;92.30
64827;BME280;51265;53.972;12.286;2023-10-09T10:37:16;100820.16;;;15.38;92.41
64827;BME280;51265;53.972;12.286;2023-10-09T10:39:51;100821.28;;;15.37;91.09
64827;BME280;51265;53.972;12.286;2023-10-09T10:42:25;100807.91;;;15.31;90.15
64827;BME280;51265;53.972;12.286;2023-10-09T10:45:01;100812.63;;;15.13;90.25
64827;BME280;51265;53.972;12.286;2023-10-09T10:47:28;100794.00;;;14.87;89.37
64827;BME280;51265;53.972;12.286;2023-10-09T10:50:02;100806.38;;;14.81;89.79
64827;BME280;51265;53.972;12.286;2023-10-09T10:53:11;100791.34;;;14.65;88.69
64827;BME280;51265;53.972;12.286;2023-10-09T10:55:55;100787.38;;;14.49;87.86
64827;BME280;51265;53.972;12.286;2023-10-09T10:58:22;100773.91;;;14.33;87.79
64827;BME280;51265;53.972;12.286;2023-10-09T11:01:01;100782.75;;;14.35;87.97
64827;BME280;51265;53.972;12.286;2023-10-09T11:03:38;100763.81;;;14.37;87.44
64827;BME280;51265;53.972;12.286;2023-10-09T11:06:30;100765.31;;;14.35;87.85
64827;BME280;51265;53.972;12.286;2023-10-09T11:09:07;100751.06;;;14.19;86.90
64827;BME280;51265;53.972;12.286;2023-10-09T11:12:05;100753.31;;;14.17;86.75
64827;BME280;51265;53.972;12.286;2023-10-09T11:15:02;100749.69;;;14.08;86.54
64827;BME280;51265;53.972;12.286;2023-10-09T11:17:32;100753.91;;;13.97;87.09
64827;BME280;51265;53.972;12.286;2023-10-09T11:19:59;100757.88;;;13.82;87.49
64827;BME280;51265;53.972;12.286;2023-10-09T11:22:45;100765.53;;;13.76;88.13
64827;BME280;51265;53.972;12.286;2023-10-09T11:25:45;100773.59;;;13.64;88.02
64827;BME280;51265;53.972;12.286;2023-10-09T11:28:23;100775.84;;;13.62;88.35
64827;BME280;51265;53.972;12.286;2023-10-09T11:31:12;100775.94;;;13.79;88.62
64827;BME280;51265;53.972;12.286;2023-10-09T11:33:50;100765.56;;;13.85;88.09
64827;BME280;51265;53.972;12.286;2023-10-09T11:36:18;100767.22;;;13.94;87.76
64827;BME280;51265;53.972;12.286;2023-10-09T11:39:03;100758.94;;;13.94;87.56
64827;BME280;51265;53.972;12.286;2023-10-09T11:42:07;100758.13;;;13.94;88.14
64827;BME280;51265;53.972;12.286;2023-10-09T11:44:38;100762.66;;;13.90;88.54
64827;BME280;51265;53.972;12.286;2023-10-09T11:47:07;100771.69;;;13.73;88.70
64827;BME280;51265;53.972;12.286;2023-10-09T11:49:55;100789.56;;;13.67;89.88
64827;BME280;51265;53.972;12.286;2023-10-09T11:52:55;100790.41;;;13.54;90.20
64827;BME280;51265;53.972;12.286;2023-10-09T11:55:35;100787.41;;;13.41;91.20
64827;BME280;51265;53.972;12.286;2023-10-09T11:58:03;100796.84;;;13.40;91.67
64827;BME280;51265;53.972;12.286;2023-10-09T12:00:31;100815.25;;;13.45;92.42
64827;BME280;51265;53.972;12.286;2023-10-09T12:03:10;100824.63;;;13.58;92.43
64827;BME280;51265;53.972;12.286;2023-10-09T12:05:37;100814.78;;;13.65;92.68
64827;BME280;51265;53.972;12.286;2023-10-09T12:08:04;100828.84;;;13.78;93.25
64827;BME280;51265;53.972;12.286;2023-10-09T12:10:34;100826.28;;;13.81;92.32
64827;BME280;51265;53.972;12.286;2023-10-09T12:13:06;100816.69;;;13.87;91.29
64827;BME280;51265;53.972;12.286;2023-10-09T12:15:33;100806.09;;;13.81;90.43
64827;BME280;51265;53.972;12.286;2023-10-09T12:18:07;100800.63;;;13.67;90.25
64827;BME280;51265;53.972;12.286;2023-10-09T12:20:41;100805.97;;;13.63;90.84
64827;BME280;51265;53.972;12.286;2023-10-09T12:23:08;100801.00;;;13.52;90.64
64827;BME280;51265;53.972;12.286;2023-10-09T12:25:39;100807.28;;;13.43;91.00
64827;BME280;51265;53.972;12.286;2023-10-09T12:28:05;100811.44;;;13.55;90.62
64827;BME280;51265;53.972;12.286;2023-10-09T12:30:32;100813.69;;;13.75;90.19
64827;BME280;51265;53.972;12.286;2023-10-09T12:33:17;100819.44;;;14.10;90.55
64827;BME280;51265;53.972;12.286;2023-10-09T12:35:44;100820.03;;;14.29;89.86
64827;BME280;51265;53.972;12.286;2023-10-09T12:38:12;100806.19;;;14.38;89.00
64827;BME280;51265;53.972;12.286;2023-10-09T12:40:45;100785.50;;;14.35;88.48
64827;BME280;51265;53.972;12.286;2023-10-09T12:43:18;100773.22;;;14.19;87.97
64827;BME280;51265;53.972;12.286;2023-10-09T12:45:46;100769.88;;;14.00;88.00
64827;BME280;51265;53.972;12.286;2023-10-09T12:48:12;100772.97;;;13.98;88.01
64827;BME280;51265;53.972;12.286;2023-10-09T12:50:40;100786.22;;;14.10;88.48
64827;BME280;51265;53.972;12.286;2023-10-09T12:53:13;100778.22;;;14.08;88.19
64827;BME280;51265;53.972;12.286;2023-10-09T12:55:44;100775.78;;;14.07;88.20
64827;BME280;51265;53.972;12.286;2023-10-09T12:58:11;100774.50;;;14.13;88.23
64827;BME280;51265;53.972;12.286;2023-10-09T13:00:42;100771.06;;;14.16;87.73
64827;BME280;51265;53.972;12.286;2023-10-09T13:03:16;100761.59;;;14.08;87.22
64827;BME280;51265;53.972;12.286;2023-10-09T13:05:48;100762.78;;;14.16;87.75
64827;BME280;51265;53.972;12.286;2023-10-09T13:08:26;100792.31;;;14.29;88.39
64827;BME280;51265;53.972;12.286;2023-10-09T13:11:04;100774.56;;;14.30;87.97
64827;BME280;51265;53.972;12.286;2023-10-09T13:13:38;100762.50;;;14.26;87.63
64827;BME280;51265;53.972;12.286;2023-10-09T13:16:12;100745.94;;;14.04;86.81
64827;BME280;51265;53.972;12.286;2023-10-09T13:18:46;100750.53;;;13.77;87.40
64827;BME280;51265;53.972;12.286;2023-10-09T13:21:17;100752.88;;;13.61;87.57
64827;BME280;51265;53.972;12.286;2023-10-09T13:23:43;100757.88;;;13.51;88.09
64827;BME280;51265;53.972;12.286;2023-10-09T13:26:17;100764.66;;;13.44;89.12
64827;BME280;51265;53.972;12.286;2023-10-09T13:28:57;100783.72;;;13.46;89.91
64827;BME280;51265;53.972;12.286;2023-10-09T13:31:24;100792.09;;;13.55;90.68